LOWWLRSB

Guest
Details From LOWW - Wien Schwechat
To LRSB - Sibiu
Flight Number -
Tags Generated
Created
Modified
Stats Distance 339 nm / 628 km
Max Altitude 0 ft / 0 m
Waypoints 3
Social Downloads 0
Likes 0
Share VATSIM

Download

Looking for another format? Having issues loading an existing format? Contact us
Advertisement - Login to hide

Notes

Generated

Route

LOWW BATIN LRSB

ID Type Via Altitude Latitude Longitude Leg Dist Tot Dist Heading (true) Name
O LOWW APT - 0 ft / 0 m 48.11978˚ 16.57818˚ - 0 nm - -
BATIN FIX - 0 ft / 0 m 46.01531˚ 23.77526˚ 320 nm 320 nm 111° / 116° -
O LRSB APT - 0 ft / 0 m 45.78576˚ 24.07857˚ 18 nm 338 nm 137° / 138° -

Altitude Profile

Advertisement - Login to hide

Weather


0- 5 10 15 20 25 30 35+ Temperature / ° C

Clouds and Precipitation
Forecast for 2017-12-12 12:00 UTC. Updated an hour ago

Ground ~20,000 ft ~40,000 ft Winds

LOWW

Details ICAO LOWW (VIE)
Name Wien Schwechat
Region Austria
Timezone Europe/Vienna (UTC+1.0)
Stats Elevation 600 ft / 183 m (AMSL)
Location 48.110068° 16.569637°
Runways 2
Magnetic Variation 4.256° E

METAR

LOWW 120820Z 27005KT 240V300 9999 -RA FEW042 SCT046 BKN050 07/04 Q1006 NOSIG

Decode

TAF

TAF LOWW 120515Z 1206/1312 29012KT CAVOK TX09/1206Z TN03/1305Z TEMPO 1206/1212 22006KT 9999 -RA OVC040 TEMPO 1212/1224 33012KT 9999 -RA FEW050 BKN060

Decode

Departure Runways

ID Width Length Bearing (true) Bearing (mag) Surface Threshold Offset Overrun Length
11 148 ft / 45 m 11,457 ft / 3,492 m 115.99° 111.73° Asphalt 0 ft / 0 m 0 ft / 0 m
16 148 ft / 45 m 11,811 ft / 3,600 m 164.23° 159.97° Asphalt 0 ft / 0 m 33 ft / 10 m
29 148 ft / 45 m 11,457 ft / 3,492 m 296.03° 291.77° Asphalt 0 ft / 0 m 0 ft / 0 m
34 148 ft / 45 m 11,811 ft / 3,600 m 344.24° 339.98° Asphalt 0 ft / 0 m 0 ft / 0 m

LRSB

Details ICAO LRSB (SBZ)
Name SIBIU
Region Romania
Timezone Europe/Bucharest (UTC+2.0)
Stats Elevation 1,496 ft / 456 m (AMSL)
Location 45.785596° 24.091341°
Runways 1
Magnetic Variation 5.459° E

METAR

LRSB 120830Z VRB02KT CAVOK 04/01 Q1013

Decode

TAF

TAF LRSB 120500Z 1206/1306 29006KT CAVOK

Decode

Destination Runways

ID Width Length Bearing (true) Bearing (mag) Surface Threshold Offset Overrun Length
09 98 ft / 30 m 6,500 ft / 1,981 m 91.07° 85.61° Concrete 0 ft / 0 m 0 ft / 0 m
27 98 ft / 30 m 6,500 ft / 1,981 m 271.09° 265.63° Concrete 492 ft / 150 m 0 ft / 0 m

Approach Navaids

Runway Type Ident Frequency Range Bearing (true) Bearing (mag) Slope Elevation
27 Localiser ISB 110.70 MHz 18 nm / 33 km 271.24° 265.78° - 1,495 ft / 456 m (AMSL)
27 Glidescope ISB 110.70 MHz 10 nm / 19 km 272.00° 266.54° 3.00° 1,495 ft / 456 m (AMSL)

Popular Alternatives